Alice Town, Bahamas

4:46 PM EDT on August 28, 2016 (GMT -0400)
IBIMINIA2 | | Change Station

Elev 0 ft 25.73 °N, 79.30 °W | Updated 13 minutes ago

Mostly Cloudy
Mostly Cloudy
87.7 °F
Feels Like 102 °F
N
2.0
Wind Variable Wind from NE

Today
High -- | Low -- °F
--% Chance of Precip.
Yesterday
High -- | Low -- °F
Precip. -- in
Pressure 29.88 in
Visibility 10.0 miles
Clouds Few 2500 ft
Scattered Clouds 3600 ft
Scattered Clouds 7500 ft
Mostly Cloudy 25000 ft
Heat Index 102 °F
Dew Point 79 °F
Humidity 74%
Rainfall 0.43 in
Snow Depth Not available.
6:56 AM 7:39 PM
Waning Crescent, 13% visible
METAR KFLL 281953Z 12016KT 10SM FEW025 SCT036 SCT075 BKN250 30/24 A2988 RMK AO2 SLP119 CB DSNT NE AND NW T03000239
Pressure 29.88 in
Visibility 10.0 miles
Clouds Few 2500 ft
Scattered Clouds 3600 ft
Scattered Clouds 7500 ft
Mostly Cloudy 25000 ft
Heat Index 102 °F
Dew Point 79 °F
Humidity 74%
Rainfall 0.43 in
Snow Depth Not available.
6:56 AM 7:39 PM
Waning Crescent, 13% visible
METAR KFLL 281953Z 12016KT 10SM FEW025 SCT036 SCT075 BKN250 30/24 A2988 RMK AO2 SLP119 CB DSNT NE AND NW T03000239

10-Day Weather Forecast

Almanac

Astronomy

Aug. 28, 2016 Rise Set
Actual Time
Civil Twilight
Nautical Twilight
Astronomical Twilight
Moon
Length of Visible Light
Length of Day
Tomorrow will be .
, % of the Moon is Illuminated

Today's Extremes

Country Highs Country Lows

Community

WunderPhotos

Upload Photos

1,935,689 photos uploaded!

WunderBlog® & News

Nearby

Air Quality

  Air Quality AQ Index Pollutant
Not available.

Snow Depth

Station Depth Elevation

Earthquake Activity

City Distance Mag. Time & Date
Minimum magnitude displayed is 2.5.

Coastal Water Temperatures

Place Temperature

Stations

Nearby Weather Stations

Station Location Temp. Windchill Dew Point Humidity Wind Precip. Elev Updated Type